sensor_id;sensor_type;location;lat;lon;timestamp;P1;durP1;ratioP1;P2;durP2;ratioP2
6725;SDS011;3400;48.506;11.692;2023-03-07T00:00:47;14.70;;;10.83;;
6725;SDS011;3400;48.506;11.692;2023-03-07T00:03:15;18.43;;;11.33;;
6725;SDS011;3400;48.506;11.692;2023-03-07T00:05:45;17.13;;;11.33;;
6725;SDS011;3400;48.506;11.692;2023-03-07T00:08:13;16.60;;;10.93;;
6725;SDS011;3400;48.506;11.692;2023-03-07T00:10:41;14.63;;;10.00;;
6725;SDS011;3400;48.506;11.692;2023-03-07T00:13:09;15.33;;;10.67;;
6725;SDS011;3400;48.506;11.692;2023-03-07T00:15:37;16.17;;;11.60;;
6725;SDS011;3400;48.506;11.692;2023-03-07T00:18:06;15.27;;;10.20;;
6725;SDS011;3400;48.506;11.692;2023-03-07T00:20:34;18.07;;;10.77;;
6725;SDS011;3400;48.506;11.692;2023-03-07T00:23:02;19.33;;;11.37;;
6725;SDS011;3400;48.506;11.692;2023-03-07T00:25:30;13.00;;;9.70;;
6725;SDS011;3400;48.506;11.692;2023-03-07T00:27:58;14.40;;;10.57;;
6725;SDS011;3400;48.506;11.692;2023-03-07T00:30:26;16.57;;;10.93;;
6725;SDS011;3400;48.506;11.692;2023-03-07T00:32:54;17.53;;;11.10;;
6725;SDS011;3400;48.506;11.692;2023-03-07T00:35:23;18.17;;;10.77;;
6725;SDS011;3400;48.506;11.692;2023-03-07T00:37:51;13.53;;;10.13;;
6725;SDS011;3400;48.506;11.692;2023-03-07T00:40:19;15.83;;;10.77;;
6725;SDS011;3400;48.506;11.692;2023-03-07T00:42:47;14.13;;;9.80;;
6725;SDS011;3400;48.506;11.692;2023-03-07T00:45:15;15.60;;;10.87;;
6725;SDS011;3400;48.506;11.692;2023-03-07T00:47:42;16.27;;;9.97;;
6725;SDS011;3400;48.506;11.692;2023-03-07T00:50:11;15.43;;;10.57;;
6725;SDS011;3400;48.506;11.692;2023-03-07T00:52:41;15.77;;;10.70;;
6725;SDS011;3400;48.506;11.692;2023-03-07T00:55:09;14.27;;;10.17;;
6725;SDS011;3400;48.506;11.692;2023-03-07T00:57:37;14.17;;;9.23;;
6725;SDS011;3400;48.506;11.692;2023-03-07T01:00:06;13.07;;;9.70;;
6725;SDS011;3400;48.506;11.692;2023-03-07T01:02:35;16.07;;;10.37;;
6725;SDS011;3400;48.506;11.692;2023-03-07T01:05:03;13.43;;;9.83;;
6725;SDS011;3400;48.506;11.692;2023-03-07T01:07:31;15.80;;;11.07;;
6725;SDS011;3400;48.506;11.692;2023-03-07T01:10:01;14.93;;;9.63;;
6725;SDS011;3400;48.506;11.692;2023-03-07T01:12:29;15.67;;;9.77;;
6725;SDS011;3400;48.506;11.692;2023-03-07T01:14:57;13.70;;;10.03;;
6725;SDS011;3400;48.506;11.692;2023-03-07T01:17:25;14.17;;;10.30;;
6725;SDS011;3400;48.506;11.692;2023-03-07T01:19:53;13.33;;;9.53;;
6725;SDS011;3400;48.506;11.692;2023-03-07T01:22:21;13.10;;;9.83;;
6725;SDS011;3400;48.506;11.692;2023-03-07T01:24:49;14.73;;;9.73;;
6725;SDS011;3400;48.506;11.692;2023-03-07T01:27:19;18.73;;;9.63;;
6725;SDS011;3400;48.506;11.692;2023-03-07T01:29:47;17.60;;;9.90;;
6725;SDS011;3400;48.506;11.692;2023-03-07T01:32:15;12.47;;;9.63;;
6725;SDS011;3400;48.506;11.692;2023-03-07T01:34:43;12.73;;;10.10;;
6725;SDS011;3400;48.506;11.692;2023-03-07T01:37:11;13.47;;;9.80;;
6725;SDS011;3400;48.506;11.692;2023-03-07T01:39:39;14.87;;;9.13;;
6725;SDS011;3400;48.506;11.692;2023-03-07T01:42:10;12.23;;;8.57;;
6725;SDS011;3400;48.506;11.692;2023-03-07T01:47:22;13.17;;;9.23;;
6725;SDS011;3400;48.506;11.692;2023-03-07T01:49:52;12.30;;;9.07;;
6725;SDS011;3400;48.506;11.692;2023-03-07T01:52:22;12.73;;;9.67;;
6725;SDS011;3400;48.506;11.692;2023-03-07T01:54:55;13.27;;;9.60;;
6725;SDS011;3400;48.506;11.692;2023-03-07T01:57:24;14.83;;;10.57;;
6725;SDS011;3400;48.506;11.692;2023-03-07T01:59:54;10.90;;;8.93;;
6725;SDS011;3400;48.506;11.692;2023-03-07T02:02:24;12.57;;;8.93;;
6725;SDS011;3400;48.506;11.692;2023-03-07T02:04:53;13.63;;;9.00;;
6725;SDS011;3400;48.506;11.692;2023-03-07T02:07:24;12.03;;;9.07;;
6725;SDS011;3400;48.506;11.692;2023-03-07T02:09:54;12.30;;;9.50;;
6725;SDS011;3400;48.506;11.692;2023-03-07T02:12:22;15.93;;;11.33;;
6725;SDS011;3400;48.506;11.692;2023-03-07T02:14:50;15.70;;;11.20;;
6725;SDS011;3400;48.506;11.692;2023-03-07T02:17:19;15.57;;;11.23;;
6725;SDS011;3400;48.506;11.692;2023-03-07T02:19:52;14.47;;;10.00;;
6725;SDS011;3400;48.506;11.692;2023-03-07T02:22:20;14.53;;;10.60;;
6725;SDS011;3400;48.506;11.692;2023-03-07T02:24:50;14.83;;;10.13;;
6725;SDS011;3400;48.506;11.692;2023-03-07T02:27:21;14.43;;;10.93;;
6725;SDS011;3400;48.506;11.692;2023-03-07T02:29:50;13.40;;;10.50;;
6725;SDS011;3400;48.506;11.692;2023-03-07T02:32:18;15.77;;;11.57;;
6725;SDS011;3400;48.506;11.692;2023-03-07T02:34:46;16.57;;;11.23;;
6725;SDS011;3400;48.506;11.692;2023-03-07T02:37:18;13.70;;;10.83;;
6725;SDS011;3400;48.506;11.692;2023-03-07T02:39:48;16.00;;;10.87;;
6725;SDS011;3400;48.506;11.692;2023-03-07T02:42:17;14.43;;;10.97;;
6725;SDS011;3400;48.506;11.692;2023-03-07T02:44:55;15.33;;;11.10;;
6725;SDS011;3400;48.506;11.692;2023-03-07T02:47:25;15.43;;;10.30;;
6725;SDS011;3400;48.506;11.692;2023-03-07T02:49:54;14.70;;;10.47;;
6725;SDS011;3400;48.506;11.692;2023-03-07T02:52:23;14.80;;;10.33;;
6725;SDS011;3400;48.506;11.692;2023-03-07T02:54:52;15.30;;;10.47;;
6725;SDS011;3400;48.506;11.692;2023-03-07T02:57:22;16.67;;;11.43;;
6725;SDS011;3400;48.506;11.692;2023-03-07T02:59:49;17.27;;;10.97;;
6725;SDS011;3400;48.506;11.692;2023-03-07T03:02:19;16.97;;;11.60;;
6725;SDS011;3400;48.506;11.692;2023-03-07T03:04:47;17.93;;;10.70;;
6725;SDS011;3400;48.506;11.692;2023-03-07T03:07:15;15.77;;;11.27;;
6725;SDS011;3400;48.506;11.692;2023-03-07T03:09:43;15.43;;;11.60;;
6725;SDS011;3400;48.506;11.692;2023-03-07T03:12:11;15.73;;;11.03;;
6725;SDS011;3400;48.506;11.692;2023-03-07T03:14:38;16.37;;;11.53;;
6725;SDS011;3400;48.506;11.692;2023-03-07T03:17:06;17.47;;;11.33;;
6725;SDS011;3400;48.506;11.692;2023-03-07T03:19:36;15.73;;;11.00;;
6725;SDS011;3400;48.506;11.692;2023-03-07T03:22:04;15.47;;;10.63;;
6725;SDS011;3400;48.506;11.692;2023-03-07T03:24:37;14.60;;;10.80;;
6725;SDS011;3400;48.506;11.692;2023-03-07T03:27:06;15.90;;;11.40;;
6725;SDS011;3400;48.506;11.692;2023-03-07T03:29:34;16.83;;;11.70;;
6725;SDS011;3400;48.506;11.692;2023-03-07T03:32:04;16.97;;;11.57;;
6725;SDS011;3400;48.506;11.692;2023-03-07T03:34:32;17.57;;;11.60;;
6725;SDS011;3400;48.506;11.692;2023-03-07T03:37:01;16.40;;;11.03;;
6725;SDS011;3400;48.506;11.692;2023-03-07T03:39:30;17.30;;;11.13;;
6725;SDS011;3400;48.506;11.692;2023-03-07T03:41:58;16.53;;;11.20;;
6725;SDS011;3400;48.506;11.692;2023-03-07T03:44:26;16.33;;;11.03;;
6725;SDS011;3400;48.506;11.692;2023-03-07T03:46:55;15.93;;;11.67;;
6725;SDS011;3400;48.506;11.692;2023-03-07T03:49:24;17.70;;;11.13;;
6725;SDS011;3400;48.506;11.692;2023-03-07T03:51:53;14.97;;;11.47;;
6725;SDS011;3400;48.506;11.692;2023-03-07T03:54:22;17.70;;;11.63;;
6725;SDS011;3400;48.506;11.692;2023-03-07T03:56:51;19.20;;;11.50;;
6725;SDS011;3400;48.506;11.692;2023-03-07T03:59:19;15.10;;;11.03;;
6725;SDS011;3400;48.506;11.692;2023-03-07T04:01:48;16.63;;;11.83;;
6725;SDS011;3400;48.506;11.692;2023-03-07T04:04:17;21.43;;;12.60;;
6725;SDS011;3400;48.506;11.692;2023-03-07T04:06:45;15.47;;;10.73;;
6725;SDS011;3400;48.506;11.692;2023-03-07T04:09:14;13.90;;;10.53;;
6725;SDS011;3400;48.506;11.692;2023-03-07T04:11:46;14.80;;;10.87;;
6725;SDS011;3400;48.506;11.692;2023-03-07T04:14:14;20.80;;;12.43;;
6725;SDS011;3400;48.506;11.692;2023-03-07T04:16:42;14.97;;;10.83;;
6725;SDS011;3400;48.506;11.692;2023-03-07T04:19:10;19.47;;;12.43;;
6725;SDS011;3400;48.506;11.692;2023-03-07T04:21:38;16.20;;;11.63;;
6725;SDS011;3400;48.506;11.692;2023-03-07T04:24:07;18.93;;;11.37;;
6725;SDS011;3400;48.506;11.692;2023-03-07T04:26:35;17.30;;;11.90;;
6725;SDS011;3400;48.506;11.692;2023-03-07T04:29:04;17.67;;;11.40;;
6725;SDS011;3400;48.506;11.692;2023-03-07T04:31:38;17.60;;;11.63;;
6725;SDS011;3400;48.506;11.692;2023-03-07T04:34:06;13.63;;;10.17;;
6725;SDS011;3400;48.506;11.692;2023-03-07T04:36:35;14.57;;;11.00;;
6725;SDS011;3400;48.506;11.692;2023-03-07T04:39:03;14.77;;;11.23;;
6725;SDS011;3400;48.506;11.692;2023-03-07T04:41:31;13.93;;;10.97;;
6725;SDS011;3400;48.506;11.692;2023-03-07T04:44:05;14.97;;;11.17;;
6725;SDS011;3400;48.506;11.692;2023-03-07T04:46:32;16.03;;;11.50;;
6725;SDS011;3400;48.506;11.692;2023-03-07T04:49:00;16.47;;;11.33;;
6725;SDS011;3400;48.506;11.692;2023-03-07T04:51:28;18.73;;;11.00;;
6725;SDS011;3400;48.506;11.692;2023-03-07T04:53:56;17.63;;;11.60;;
6725;SDS011;3400;48.506;11.692;2023-03-07T04:56:24;15.07;;;11.90;;
6725;SDS011;3400;48.506;11.692;2023-03-07T04:58:53;14.47;;;10.53;;
6725;SDS011;3400;48.506;11.692;2023-03-07T05:01:22;16.13;;;11.57;;
6725;SDS011;3400;48.506;11.692;2023-03-07T05:03:50;15.77;;;11.47;;
6725;SDS011;3400;48.506;11.692;2023-03-07T05:06:20;14.60;;;10.40;;
6725;SDS011;3400;48.506;11.692;2023-03-07T05:08:49;16.43;;;10.70;;
6725;SDS011;3400;48.506;11.692;2023-03-07T05:11:17;13.03;;;9.63;;
6725;SDS011;3400;48.506;11.692;2023-03-07T05:13:46;14.57;;;9.97;;
6725;SDS011;3400;48.506;11.692;2023-03-07T05:16:17;18.40;;;10.67;;
6725;SDS011;3400;48.506;11.692;2023-03-07T05:18:46;17.60;;;10.93;;
6725;SDS011;3400;48.506;11.692;2023-03-07T05:21:15;14.57;;;10.60;;
6725;SDS011;3400;48.506;11.692;2023-03-07T05:23:43;14.33;;;9.83;;
6725;SDS011;3400;48.506;11.692;2023-03-07T05:26:12;15.63;;;10.73;;
6725;SDS011;3400;48.506;11.692;2023-03-07T05:28:40;14.97;;;10.03;;
6725;SDS011;3400;48.506;11.692;2023-03-07T05:31:08;17.73;;;11.03;;
6725;SDS011;3400;48.506;11.692;2023-03-07T05:33:36;14.87;;;10.33;;
6725;SDS011;3400;48.506;11.692;2023-03-07T05:36:09;15.87;;;9.97;;
6725;SDS011;3400;48.506;11.692;2023-03-07T05:38:37;15.40;;;10.60;;
6725;SDS011;3400;48.506;11.692;2023-03-07T05:41:05;17.40;;;11.30;;
6725;SDS011;3400;48.506;11.692;2023-03-07T05:43:33;13.50;;;9.97;;
6725;SDS011;3400;48.506;11.692;2023-03-07T05:46:01;13.67;;;9.90;;
6725;SDS011;3400;48.506;11.692;2023-03-07T05:48:29;15.63;;;10.50;;
6725;SDS011;3400;48.506;11.692;2023-03-07T05:50:57;15.00;;;10.17;;
6725;SDS011;3400;48.506;11.692;2023-03-07T05:53:27;16.70;;;10.30;;
6725;SDS011;3400;48.506;11.692;2023-03-07T05:55:55;12.90;;;10.13;;
6725;SDS011;3400;48.506;11.692;2023-03-07T05:58:23;14.50;;;10.30;;
6725;SDS011;3400;48.506;11.692;2023-03-07T06:00:52;15.03;;;9.93;;
6725;SDS011;3400;48.506;11.692;2023-03-07T06:03:20;14.90;;;10.47;;
6725;SDS011;3400;48.506;11.692;2023-03-07T06:05:48;12.97;;;9.37;;
6725;SDS011;3400;48.506;11.692;2023-03-07T06:08:17;16.57;;;10.20;;
6725;SDS011;3400;48.506;11.692;2023-03-07T06:10:49;15.77;;;10.53;;
6725;SDS011;3400;48.506;11.692;2023-03-07T06:13:18;14.30;;;10.20;;
6725;SDS011;3400;48.506;11.692;2023-03-07T06:15:47;11.80;;;9.00;;
6725;SDS011;3400;48.506;11.692;2023-03-07T06:18:16;15.00;;;9.63;;
6725;SDS011;3400;48.506;11.692;2023-03-07T06:20:43;13.27;;;9.53;;
6725;SDS011;3400;48.506;11.692;2023-03-07T06:23:11;14.00;;;9.37;;
6725;SDS011;3400;48.506;11.692;2023-03-07T06:25:40;14.30;;;9.90;;
6725;SDS011;3400;48.506;11.692;2023-03-07T06:28:09;14.63;;;9.97;;
6725;SDS011;3400;48.506;11.692;2023-03-07T06:30:37;13.63;;;9.43;;
6725;SDS011;3400;48.506;11.692;2023-03-07T06:33:05;13.70;;;9.47;;
6725;SDS011;3400;48.506;11.692;2023-03-07T06:35:33;12.63;;;9.57;;
6725;SDS011;3400;48.506;11.692;2023-03-07T06:38:05;13.07;;;9.03;;
6725;SDS011;3400;48.506;11.692;2023-03-07T06:40:33;13.57;;;9.80;;
6725;SDS011;3400;48.506;11.692;2023-03-07T06:43:01;14.27;;;9.27;;
6725;SDS011;3400;48.506;11.692;2023-03-07T06:45:30;15.73;;;10.10;;
6725;SDS011;3400;48.506;11.692;2023-03-07T06:47:58;12.53;;;9.00;;
6725;SDS011;3400;48.506;11.692;2023-03-07T06:50:26;11.47;;;8.40;;
6725;SDS011;3400;48.506;11.692;2023-03-07T06:52:54;13.93;;;9.00;;
6725;SDS011;3400;48.506;11.692;2023-03-07T06:55:22;11.60;;;8.27;;
6725;SDS011;3400;48.506;11.692;2023-03-07T06:57:50;15.33;;;9.77;;
6725;SDS011;3400;48.506;11.692;2023-03-07T07:00:19;14.47;;;9.93;;
6725;SDS011;3400;48.506;11.692;2023-03-07T07:02:49;15.50;;;9.20;;
6725;SDS011;3400;48.506;11.692;2023-03-07T07:05:17;11.97;;;9.10;;
6725;SDS011;3400;48.506;11.692;2023-03-07T07:07:45;10.73;;;8.23;;
6725;SDS011;3400;48.506;11.692;2023-03-07T07:10:13;14.73;;;8.67;;
6725;SDS011;3400;48.506;11.692;2023-03-07T07:12:41;13.93;;;8.93;;
6725;SDS011;3400;48.506;11.692;2023-03-07T07:15:09;12.57;;;8.97;;
6725;SDS011;3400;48.506;11.692;2023-03-07T07:17:37;12.40;;;8.40;;
6725;SDS011;3400;48.506;11.692;2023-03-07T07:20:08;11.70;;;8.57;;
6725;SDS011;3400;48.506;11.692;2023-03-07T07:22:38;12.47;;;8.80;;
6725;SDS011;3400;48.506;11.692;2023-03-07T07:25:06;13.70;;;8.63;;
6725;SDS011;3400;48.506;11.692;2023-03-07T07:27:34;11.33;;;8.60;;
6725;SDS011;3400;48.506;11.692;2023-03-07T07:30:03;13.13;;;8.90;;
6725;SDS011;3400;48.506;11.692;2023-03-07T07:32:31;14.17;;;9.57;;
6725;SDS011;3400;48.506;11.692;2023-03-07T07:35:01;14.10;;;8.80;;
6725;SDS011;3400;48.506;11.692;2023-03-07T07:37:31;11.97;;;8.87;;
6725;SDS011;3400;48.506;11.692;2023-03-07T07:39:59;11.40;;;8.90;;
6725;SDS011;3400;48.506;11.692;2023-03-07T07:42:27;11.27;;;8.10;;
6725;SDS011;3400;48.506;11.692;2023-03-07T07:45:33;13.73;;;9.20;;
6725;SDS011;3400;48.506;11.692;2023-03-07T07:48:05;13.03;;;8.53;;
6725;SDS011;3400;48.506;11.692;2023-03-07T07:50:34;11.47;;;8.87;;
6725;SDS011;3400;48.506;11.692;2023-03-07T07:53:04;12.67;;;9.23;;
6725;SDS011;3400;48.506;11.692;2023-03-07T07:55:32;14.57;;;8.90;;
6725;SDS011;3400;48.506;11.692;2023-03-07T07:58:00;12.97;;;8.83;;
6725;SDS011;3400;48.506;11.692;2023-03-07T08:00:29;13.37;;;8.90;;
6725;SDS011;3400;48.506;11.692;2023-03-07T08:02:57;9.93;;;7.87;;
6725;SDS011;3400;48.506;11.692;2023-03-07T08:05:25;10.60;;;7.63;;
6725;SDS011;3400;48.506;11.692;2023-03-07T08:07:53;11.60;;;8.50;;
6725;SDS011;3400;48.506;11.692;2023-03-07T08:10:23;15.20;;;8.57;;
6725;SDS011;3400;48.506;11.692;2023-03-07T08:12:51;11.97;;;8.53;;
6725;SDS011;3400;48.506;11.692;2023-03-07T08:15:19;10.57;;;8.17;;
6725;SDS011;3400;48.506;11.692;2023-03-07T08:17:47;10.67;;;7.83;;
6725;SDS011;3400;48.506;11.692;2023-03-07T08:20:16;10.17;;;7.97;;
6725;SDS011;3400;48.506;11.692;2023-03-07T08:22:47;10.93;;;7.87;;
6725;SDS011;3400;48.506;11.692;2023-03-07T08:25:16;10.33;;;7.87;;
6725;SDS011;3400;48.506;11.692;2023-03-07T08:27:46;9.17;;;7.50;;
6725;SDS011;3400;48.506;11.692;2023-03-07T08:30:17;9.37;;;8.03;;
6725;SDS011;3400;48.506;11.692;2023-03-07T08:32:47;11.93;;;8.03;;
6725;SDS011;3400;48.506;11.692;2023-03-07T08:35:15;9.87;;;7.77;;
6725;SDS011;3400;48.506;11.692;2023-03-07T08:37:43;12.90;;;7.43;;
6725;SDS011;3400;48.506;11.692;2023-03-07T08:40:11;9.00;;;7.03;;
6725;SDS011;3400;48.506;11.692;2023-03-07T08:42:39;10.17;;;7.53;;
6725;SDS011;3400;48.506;11.692;2023-03-07T08:45:09;10.70;;;7.50;;
6725;SDS011;3400;48.506;11.692;2023-03-07T08:47:37;8.63;;;7.40;;
6725;SDS011;3400;48.506;11.692;2023-03-07T08:50:05;8.23;;;7.13;;
6725;SDS011;3400;48.506;11.692;2023-03-07T08:52:33;10.03;;;7.43;;
6725;SDS011;3400;48.506;11.692;2023-03-07T08:55:01;8.77;;;7.67;;
6725;SDS011;3400;48.506;11.692;2023-03-07T08:57:29;9.47;;;6.73;;
6725;SDS011;3400;48.506;11.692;2023-03-07T08:59:57;8.53;;;7.03;;
6725;SDS011;3400;48.506;11.692;2023-03-07T09:02:27;9.27;;;7.57;;
6725;SDS011;3400;48.506;11.692;2023-03-07T09:04:54;8.67;;;6.57;;
6725;SDS011;3400;48.506;11.692;2023-03-07T09:07:22;8.43;;;6.93;;
6725;SDS011;3400;48.506;11.692;2023-03-07T09:09:50;6.80;;;6.10;;
6725;SDS011;3400;48.506;11.692;2023-03-07T09:12:18;6.73;;;6.03;;
6725;SDS011;3400;48.506;11.692;2023-03-07T09:14:46;6.70;;;6.00;;
6725;SDS011;3400;48.506;11.692;2023-03-07T09:17:14;6.73;;;5.93;;
6725;SDS011;3400;48.506;11.692;2023-03-07T09:19:45;6.67;;;5.90;;
6725;SDS011;3400;48.506;11.692;2023-03-07T09:22:14;7.73;;;6.80;;
6725;SDS011;3400;48.506;11.692;2023-03-07T09:24:41;6.83;;;5.93;;
6725;SDS011;3400;48.506;11.692;2023-03-07T09:27:09;7.17;;;5.93;;
6725;SDS011;3400;48.506;11.692;2023-03-07T09:29:37;7.87;;;6.40;;
6725;SDS011;3400;48.506;11.692;2023-03-07T09:32:05;6.07;;;5.47;;
6725;SDS011;3400;48.506;11.692;2023-03-07T09:34:33;6.13;;;5.53;;
6725;SDS011;3400;48.506;11.692;2023-03-07T09:37:02;6.30;;;5.67;;
6725;SDS011;3400;48.506;11.692;2023-03-07T09:39:30;6.43;;;5.83;;
6725;SDS011;3400;48.506;11.692;2023-03-07T09:42:01;7.73;;;5.90;;
6725;SDS011;3400;48.506;11.692;2023-03-07T09:44:33;6.23;;;5.27;;
6725;SDS011;3400;48.506;11.692;2023-03-07T09:47:42;5.43;;;4.93;;
6725;SDS011;3400;48.506;11.692;2023-03-07T09:50:14;6.03;;;5.53;;
6725;SDS011;3400;48.506;11.692;2023-03-07T09:52:46;6.20;;;5.60;;
6725;SDS011;3400;48.506;11.692;2023-03-07T09:55:14;6.97;;;5.50;;
6725;SDS011;3400;48.506;11.692;2023-03-07T09:57:44;6.27;;;5.67;;
6725;SDS011;3400;48.506;11.692;2023-03-07T10:00:17;5.93;;;5.33;;
6725;SDS011;3400;48.506;11.692;2023-03-07T10:02:47;5.53;;;5.03;;
6725;SDS011;3400;48.506;11.692;2023-03-07T10:05:21;6.97;;;5.30;;
6725;SDS011;3400;48.506;11.692;2023-03-07T10:07:51;5.57;;;4.90;;
6725;SDS011;3400;48.506;11.692;2023-03-07T10:10:20;5.23;;;4.73;;
6725;SDS011;3400;48.506;11.692;2023-03-07T10:12:52;4.30;;;3.90;;
6725;SDS011;3400;48.506;11.692;2023-03-07T10:15:34;4.60;;;4.20;;
6725;SDS011;3400;48.506;11.692;2023-03-07T10:18:20;5.67;;;5.07;;
6725;SDS011;3400;48.506;11.692;2023-03-07T10:20:50;6.97;;;5.33;;
6725;SDS011;3400;48.506;11.692;2023-03-07T10:23:22;6.07;;;5.47;;
6725;SDS011;3400;48.506;11.692;2023-03-07T10:25:55;5.83;;;5.27;;
6725;SDS011;3400;48.506;11.692;2023-03-07T10:28:25;5.80;;;5.30;;
6725;SDS011;3400;48.506;11.692;2023-03-07T10:30:56;7.07;;;5.90;;
6725;SDS011;3400;48.506;11.692;2023-03-07T10:33:24;6.13;;;5.53;;
6725;SDS011;3400;48.506;11.692;2023-03-07T10:35:55;6.47;;;5.47;;
6725;SDS011;3400;48.506;11.692;2023-03-07T10:38:29;6.53;;;5.70;;
6725;SDS011;3400;48.506;11.692;2023-03-07T10:41:00;6.67;;;5.77;;
6725;SDS011;3400;48.506;11.692;2023-03-07T10:43:29;6.67;;;5.97;;
6725;SDS011;3400;48.506;11.692;2023-03-07T10:46:00;8.37;;;6.30;;
6725;SDS011;3400;48.506;11.692;2023-03-07T10:48:29;7.73;;;6.73;;
6725;SDS011;3400;48.506;11.692;2023-03-07T10:51:00;7.30;;;6.43;;
6725;SDS011;3400;48.506;11.692;2023-03-07T10:53:34;7.83;;;6.50;;
6725;SDS011;3400;48.506;11.692;2023-03-07T10:56:10;8.30;;;6.80;;
6725;SDS011;3400;48.506;11.692;2023-03-07T10:58:38;12.43;;;6.23;;
6725;SDS011;3400;48.506;11.692;2023-03-07T11:01:16;11.13;;;6.73;;
6725;SDS011;3400;48.506;11.692;2023-03-07T11:03:46;7.70;;;6.17;;
6725;SDS011;3400;48.506;11.692;2023-03-07T11:06:26;7.50;;;6.63;;
6725;SDS011;3400;48.506;11.692;2023-03-07T11:08:56;7.67;;;6.43;;
6725;SDS011;3400;48.506;11.692;2023-03-07T11:11:25;7.57;;;6.80;;
6725;SDS011;3400;48.506;11.692;2023-03-07T11:16:46;8.13;;;6.80;;
6725;SDS011;3400;48.506;11.692;2023-03-07T11:22:17;8.30;;;6.57;;
6725;SDS011;3400;48.506;11.692;2023-03-07T11:24:49;8.18;;;6.78;;
6725;SDS011;3400;48.506;11.692;2023-03-07T11:27:19;11.18;;;7.43;;
6725;SDS011;3400;48.506;11.692;2023-03-07T11:29:55;7.40;;;6.68;;
6725;SDS011;3400;48.506;11.692;2023-03-07T11:32:31;8.40;;;7.32;;
6725;SDS011;3400;48.506;11.692;2023-03-07T11:35:02;8.18;;;7.00;;
6725;SDS011;3400;48.506;11.692;2023-03-07T11:37:33;8.98;;;7.57;;
6725;SDS011;3400;48.506;11.692;2023-03-07T11:40:19;8.38;;;7.30;;
6725;SDS011;3400;48.506;11.692;2023-03-07T11:42:49;8.63;;;7.70;;
6725;SDS011;3400;48.506;11.692;2023-03-07T11:45:24;7.80;;;7.00;;
6725;SDS011;3400;48.506;11.692;2023-03-07T11:47:55;8.18;;;7.38;;
6725;SDS011;3400;48.506;11.692;2023-03-07T11:50:27;9.57;;;7.88;;
6725;SDS011;3400;48.506;11.692;2023-03-07T11:53:05;8.93;;;6.43;;
6725;SDS011;3400;48.506;11.692;2023-03-07T11:55:38;9.43;;;7.20;;
6725;SDS011;3400;48.506;11.692;2023-03-07T11:58:19;8.13;;;7.32;;
6725;SDS011;3400;48.506;11.692;2023-03-07T12:00:51;8.05;;;7.25;;
6725;SDS011;3400;48.506;11.692;2023-03-07T12:03:32;9.77;;;7.43;;
6725;SDS011;3400;48.506;11.692;2023-03-07T12:11:33;9.02;;;6.47;;
6725;SDS011;3400;48.506;11.692;2023-03-07T12:14:07;7.70;;;6.38;;
6725;SDS011;3400;48.506;11.692;2023-03-07T12:16:41;8.65;;;7.53;;
6725;SDS011;3400;48.506;11.692;2023-03-07T12:22:08;6.70;;;6.07;;
6725;SDS011;3400;48.506;11.692;2023-03-07T12:24:39;6.82;;;6.13;;
6725;SDS011;3400;48.506;11.692;2023-03-07T12:27:13;7.13;;;6.53;;
6725;SDS011;3400;48.506;11.692;2023-03-07T12:29:44;8.80;;;6.53;;
6725;SDS011;3400;48.506;11.692;2023-03-07T12:32:15;6.80;;;6.05;;
6725;SDS011;3400;48.506;11.692;2023-03-07T12:34:45;8.38;;;6.03;;
6725;SDS011;3400;48.506;11.692;2023-03-07T12:37:15;7.03;;;6.28;;
6725;SDS011;3400;48.506;11.692;2023-03-07T12:39:45;6.50;;;5.90;;
6725;SDS011;3400;48.506;11.692;2023-03-07T12:42:20;7.15;;;6.45;;
6725;SDS011;3400;48.506;11.692;2023-03-07T12:44:49;7.18;;;6.47;;
6725;SDS011;3400;48.506;11.692;2023-03-07T12:47:18;7.47;;;6.65;;
6725;SDS011;3400;48.506;11.692;2023-03-07T12:49:51;7.10;;;6.30;;
6725;SDS011;3400;48.506;11.692;2023-03-07T12:52:22;6.97;;;6.28;;
6725;SDS011;3400;48.506;11.692;2023-03-07T12:54:54;8.77;;;7.03;;
6725;SDS011;3400;48.506;11.692;2023-03-07T12:57:25;7.95;;;6.28;;
6725;SDS011;3400;48.506;11.692;2023-03-07T12:59:55;7.45;;;6.68;;
6725;SDS011;3400;48.506;11.692;2023-03-07T13:02:26;8.57;;;6.75;;
6725;SDS011;3400;48.506;11.692;2023-03-07T13:04:54;8.02;;;6.80;;
6725;SDS011;3400;48.506;11.692;2023-03-07T13:07:25;7.20;;;5.82;;
6725;SDS011;3400;48.506;11.692;2023-03-07T13:09:54;6.97;;;6.25;;
6725;SDS011;3400;48.506;11.692;2023-03-07T13:12:29;6.73;;;6.13;;
6725;SDS011;3400;48.506;11.692;2023-03-07T13:14:58;6.87;;;6.10;;
6725;SDS011;3400;48.506;11.692;2023-03-07T13:22:58;8.93;;;6.80;;
6725;SDS011;3400;48.506;11.692;2023-03-07T13:25:45;7.70;;;6.90;;
6725;SDS011;3400;48.506;11.692;2023-03-07T13:28:39;8.47;;;7.10;;
6725;SDS011;3400;48.506;11.692;2023-03-07T13:36:47;7.47;;;6.77;;
6725;SDS011;3400;48.506;11.692;2023-03-07T13:39:33;8.80;;;6.73;;
6725;SDS011;3400;48.506;11.692;2023-03-07T13:42:03;7.37;;;6.67;;
6725;SDS011;3400;48.506;11.692;2023-03-07T13:44:37;8.27;;;7.17;;
6725;SDS011;3400;48.506;11.692;2023-03-07T13:49:48;6.77;;;6.10;;
6725;SDS011;3400;48.506;11.692;2023-03-07T13:55:23;9.10;;;7.70;;
6725;SDS011;3400;48.506;11.692;2023-03-07T13:57:52;7.33;;;6.47;;
6725;SDS011;3400;48.506;11.692;2023-03-07T14:00:26;8.23;;;7.43;;
6725;SDS011;3400;48.506;11.692;2023-03-07T14:02:57;7.80;;;6.73;;
6725;SDS011;3400;48.506;11.692;2023-03-07T14:05:30;8.13;;;6.43;;
6725;SDS011;3400;48.506;11.692;2023-03-07T14:07:59;8.03;;;7.07;;
6725;SDS011;3400;48.506;11.692;2023-03-07T14:10:29;8.70;;;6.80;;
6725;SDS011;3400;48.506;11.692;2023-03-07T14:13:05;8.73;;;7.07;;
6725;SDS011;3400;48.506;11.692;2023-03-07T14:15:38;8.37;;;7.30;;
6725;SDS011;3400;48.506;11.692;2023-03-07T14:18:13;8.07;;;7.23;;
6725;SDS011;3400;48.506;11.692;2023-03-07T14:20:49;8.67;;;7.17;;
6725;SDS011;3400;48.506;11.692;2023-03-07T14:23:26;8.03;;;7.23;;
6725;SDS011;3400;48.506;11.692;2023-03-07T14:25:59;8.27;;;6.87;;
6725;SDS011;3400;48.506;11.692;2023-03-07T14:28:31;7.77;;;6.97;;
6725;SDS011;3400;48.506;11.692;2023-03-07T14:31:02;8.80;;;7.23;;
6725;SDS011;3400;48.506;11.692;2023-03-07T14:33:31;6.93;;;6.23;;
6725;SDS011;3400;48.506;11.692;2023-03-07T14:35:59;9.13;;;7.13;;
6725;SDS011;3400;48.506;11.692;2023-03-07T14:38:27;9.00;;;7.63;;
6725;SDS011;3400;48.506;11.692;2023-03-07T14:41:01;11.07;;;7.77;;
6725;SDS011;3400;48.506;11.692;2023-03-07T14:43:37;9.27;;;6.60;;
6725;SDS011;3400;48.506;11.692;2023-03-07T14:46:11;10.27;;;7.90;;
6725;SDS011;3400;48.506;11.692;2023-03-07T14:48:46;11.33;;;7.70;;
6725;SDS011;3400;48.506;11.692;2023-03-07T14:51:20;9.87;;;7.60;;
6725;SDS011;3400;48.506;11.692;2023-03-07T14:53:49;10.47;;;7.53;;
6725;SDS011;3400;48.506;11.692;2023-03-07T14:56:18;11.57;;;7.43;;
6725;SDS011;3400;48.506;11.692;2023-03-07T14:58:48;10.07;;;7.97;;
6725;SDS011;3400;48.506;11.692;2023-03-07T15:01:19;9.40;;;7.57;;
6725;SDS011;3400;48.506;11.692;2023-03-07T15:03:48;11.77;;;7.30;;
6725;SDS011;3400;48.506;11.692;2023-03-07T15:06:17;9.67;;;7.37;;
6725;SDS011;3400;48.506;11.692;2023-03-07T15:08:45;11.97;;;7.23;;
6725;SDS011;3400;48.506;11.692;2023-03-07T15:11:18;9.00;;;7.80;;
6725;SDS011;3400;48.506;11.692;2023-03-07T15:13:48;9.37;;;7.53;;
6725;SDS011;3400;48.506;11.692;2023-03-07T15:16:21;11.63;;;8.40;;
6725;SDS011;3400;48.506;11.692;2023-03-07T15:18:50;9.43;;;8.27;;
6725;SDS011;3400;48.506;11.692;2023-03-07T15:21:19;11.80;;;7.53;;
6725;SDS011;3400;48.506;11.692;2023-03-07T15:23:51;8.70;;;7.60;;
6725;SDS011;3400;48.506;11.692;2023-03-07T15:26:21;11.53;;;8.00;;
6725;SDS011;3400;48.506;11.692;2023-03-07T15:28:56;12.67;;;8.30;;
6725;SDS011;3400;48.506;11.692;2023-03-07T15:31:26;9.43;;;8.07;;
6725;SDS011;3400;48.506;11.692;2023-03-07T15:34:07;9.50;;;7.17;;
6725;SDS011;3400;48.506;11.692;2023-03-07T15:36:35;10.03;;;7.73;;
6725;SDS011;3400;48.506;11.692;2023-03-07T15:41:57;11.97;;;8.17;;